sensor_id;sensor_type;location;lat;lon;timestamp;P1;durP1;ratioP1;P2;durP2;ratioP2
73321;SDS011;61549;37.044;22.128;2023-04-25T00:00:18;8.77;;;7.50;;
73321;SDS011;61549;37.044;22.128;2023-04-25T00:02:44;8.60;;;6.97;;
73321;SDS011;61549;37.044;22.128;2023-04-25T00:05:11;8.70;;;6.57;;
73321;SDS011;61549;37.044;22.128;2023-04-25T00:07:37;9.60;;;7.55;;
73321;SDS011;61549;37.044;22.128;2023-04-25T00:10:03;10.38;;;7.10;;
73321;SDS011;61549;37.044;22.128;2023-04-25T00:12:30;9.07;;;7.70;;
73321;SDS011;61549;37.044;22.128;2023-04-25T00:14:55;8.88;;;6.80;;
73321;SDS011;61549;37.044;22.128;2023-04-25T00:17:27;9.48;;;7.05;;
73321;SDS011;61549;37.044;22.128;2023-04-25T00:19:53;10.38;;;7.50;;
73321;SDS011;61549;37.044;22.128;2023-04-25T00:22:19;9.40;;;7.47;;
73321;SDS011;61549;37.044;22.128;2023-04-25T00:24:44;8.93;;;6.97;;
73321;SDS011;61549;37.044;22.128;2023-04-25T00:27:10;8.75;;;6.53;;
73321;SDS011;61549;37.044;22.128;2023-04-25T00:29:36;7.82;;;6.65;;
73321;SDS011;61549;37.044;22.128;2023-04-25T00:32:02;7.53;;;6.65;;
73321;SDS011;61549;37.044;22.128;2023-04-25T00:34:28;8.73;;;6.93;;
73321;SDS011;61549;37.044;22.128;2023-04-25T00:36:53;9.85;;;7.18;;
73321;SDS011;61549;37.044;22.128;2023-04-25T00:39:20;9.45;;;6.60;;
73321;SDS011;61549;37.044;22.128;2023-04-25T00:41:45;8.73;;;6.60;;
73321;SDS011;61549;37.044;22.128;2023-04-25T00:44:12;8.85;;;6.53;;
73321;SDS011;61549;37.044;22.128;2023-04-25T00:46:38;7.07;;;6.18;;
73321;SDS011;61549;37.044;22.128;2023-04-25T00:49:05;7.75;;;6.88;;
73321;SDS011;61549;37.044;22.128;2023-04-25T00:51:41;8.23;;;6.57;;
73321;SDS011;61549;37.044;22.128;2023-04-25T00:54:09;8.98;;;6.47;;
73321;SDS011;61549;37.044;22.128;2023-04-25T00:56:36;7.32;;;6.07;;
73321;SDS011;61549;37.044;22.128;2023-04-25T00:59:01;8.07;;;7.03;;
73321;SDS011;61549;37.044;22.128;2023-04-25T01:01:28;7.85;;;6.35;;
73321;SDS011;61549;37.044;22.128;2023-04-25T01:03:54;7.50;;;6.53;;
73321;SDS011;61549;37.044;22.128;2023-04-25T01:06:23;8.45;;;6.25;;
73321;SDS011;61549;37.044;22.128;2023-04-25T01:08:49;8.18;;;6.55;;
73321;SDS011;61549;37.044;22.128;2023-04-25T01:11:16;7.03;;;5.97;;
73321;SDS011;61549;37.044;22.128;2023-04-25T01:13:42;8.32;;;6.38;;
73321;SDS011;61549;37.044;22.128;2023-04-25T01:16:08;7.63;;;6.22;;
73321;SDS011;61549;37.044;22.128;2023-04-25T01:18:33;7.40;;;6.10;;
73321;SDS011;61549;37.044;22.128;2023-04-25T01:21:06;10.70;;;6.40;;
73321;SDS011;61549;37.044;22.128;2023-04-25T01:23:37;7.53;;;6.30;;
73321;SDS011;61549;37.044;22.128;2023-04-25T01:26:06;7.95;;;6.20;;
73321;SDS011;61549;37.044;22.128;2023-04-25T01:28:33;8.95;;;6.32;;
73321;SDS011;61549;37.044;22.128;2023-04-25T01:31:00;8.93;;;6.53;;
73321;SDS011;61549;37.044;22.128;2023-04-25T01:33:26;8.07;;;6.05;;
73321;SDS011;61549;37.044;22.128;2023-04-25T01:35:52;10.02;;;6.50;;
73321;SDS011;61549;37.044;22.128;2023-04-25T01:38:18;7.15;;;6.43;;
73321;SDS011;61549;37.044;22.128;2023-04-25T01:40:44;6.55;;;5.85;;
73321;SDS011;61549;37.044;22.128;2023-04-25T01:43:12;6.97;;;6.28;;
73321;SDS011;61549;37.044;22.128;2023-04-25T01:45:39;8.52;;;5.97;;
73321;SDS011;61549;37.044;22.128;2023-04-25T01:48:07;7.45;;;5.97;;
73321;SDS011;61549;37.044;22.128;2023-04-25T01:50:34;6.65;;;6.00;;
73321;SDS011;61549;37.044;22.128;2023-04-25T01:53:00;9.45;;;6.47;;
73321;SDS011;61549;37.044;22.128;2023-04-25T01:55:27;7.85;;;6.03;;
73321;SDS011;61549;37.044;22.128;2023-04-25T01:57:54;7.45;;;5.90;;
73321;SDS011;61549;37.044;22.128;2023-04-25T02:00:20;7.15;;;6.10;;
73321;SDS011;61549;37.044;22.128;2023-04-25T02:02:46;7.95;;;6.40;;
73321;SDS011;61549;37.044;22.128;2023-04-25T02:05:11;8.38;;;6.25;;
73321;SDS011;61549;37.044;22.128;2023-04-25T02:07:37;7.53;;;6.15;;
73321;SDS011;61549;37.044;22.128;2023-04-25T02:10:03;8.10;;;6.00;;
73321;SDS011;61549;37.044;22.128;2023-04-25T02:12:30;7.70;;;6.53;;
73321;SDS011;61549;37.044;22.128;2023-04-25T02:14:56;7.00;;;6.22;;
73321;SDS011;61549;37.044;22.128;2023-04-25T02:17:22;6.78;;;6.07;;
73321;SDS011;61549;37.044;22.128;2023-04-25T02:19:48;7.78;;;6.32;;
73321;SDS011;61549;37.044;22.128;2023-04-25T02:22:15;6.47;;;5.53;;
73321;SDS011;61549;37.044;22.128;2023-04-25T02:24:41;7.75;;;5.85;;
73321;SDS011;61549;37.044;22.128;2023-04-25T02:27:07;6.75;;;6.05;;
73321;SDS011;61549;37.044;22.128;2023-04-25T02:29:32;7.65;;;6.40;;
73321;SDS011;61549;37.044;22.128;2023-04-25T02:31:58;8.30;;;6.20;;
73321;SDS011;61549;37.044;22.128;2023-04-25T02:34:24;8.73;;;6.70;;
73321;SDS011;61549;37.044;22.128;2023-04-25T02:36:50;7.68;;;5.90;;
73321;SDS011;61549;37.044;22.128;2023-04-25T02:39:23;7.50;;;6.07;;
73321;SDS011;61549;37.044;22.128;2023-04-25T02:41:50;7.25;;;6.05;;
73321;SDS011;61549;37.044;22.128;2023-04-25T02:44:23;7.40;;;5.95;;
73321;SDS011;61549;37.044;22.128;2023-04-25T02:49:25;7.25;;;6.10;;
73321;SDS011;61549;37.044;22.128;2023-04-25T02:51:51;7.60;;;5.90;;
73321;SDS011;61549;37.044;22.128;2023-04-25T02:54:17;7.47;;;6.13;;
73321;SDS011;61549;37.044;22.128;2023-04-25T02:56:43;6.93;;;6.00;;
73321;SDS011;61549;37.044;22.128;2023-04-25T02:59:09;8.07;;;6.10;;
73321;SDS011;61549;37.044;22.128;2023-04-25T03:01:34;7.63;;;6.38;;
73321;SDS011;61549;37.044;22.128;2023-04-25T03:04:00;7.07;;;6.25;;
73321;SDS011;61549;37.044;22.128;2023-04-25T03:06:26;7.95;;;6.70;;
73321;SDS011;61549;37.044;22.128;2023-04-25T03:08:52;9.55;;;6.60;;
73321;SDS011;61549;37.044;22.128;2023-04-25T03:11:18;7.05;;;6.18;;
73321;SDS011;61549;37.044;22.128;2023-04-25T03:13:45;8.57;;;6.63;;
73321;SDS011;61549;37.044;22.128;2023-04-25T03:16:11;9.30;;;6.63;;
73321;SDS011;61549;37.044;22.128;2023-04-25T03:18:37;7.25;;;6.00;;
73321;SDS011;61549;37.044;22.128;2023-04-25T03:21:02;7.07;;;6.38;;
73321;SDS011;61549;37.044;22.128;2023-04-25T03:23:28;7.72;;;5.95;;
73321;SDS011;61549;37.044;22.128;2023-04-25T03:25:54;7.53;;;5.97;;
73321;SDS011;61549;37.044;22.128;2023-04-25T03:28:20;7.05;;;6.05;;
73321;SDS011;61549;37.044;22.128;2023-04-25T03:30:46;8.35;;;5.90;;
73321;SDS011;61549;37.044;22.128;2023-04-25T03:33:11;8.70;;;6.10;;
73321;SDS011;61549;37.044;22.128;2023-04-25T03:35:37;7.55;;;6.30;;
73321;SDS011;61549;37.044;22.128;2023-04-25T03:38:03;7.93;;;6.40;;
73321;SDS011;61549;37.044;22.128;2023-04-25T03:40:29;8.63;;;6.53;;
73321;SDS011;61549;37.044;22.128;2023-04-25T03:43:00;7.95;;;6.30;;
73321;SDS011;61549;37.044;22.128;2023-04-25T03:45:37;7.93;;;6.10;;
73321;SDS011;61549;37.044;22.128;2023-04-25T03:48:03;8.80;;;6.32;;
73321;SDS011;61549;37.044;22.128;2023-04-25T03:53:16;6.85;;;5.40;;
73321;SDS011;61549;37.044;22.128;2023-04-25T03:55:41;7.85;;;5.90;;
73321;SDS011;61549;37.044;22.128;2023-04-25T03:58:07;8.82;;;6.20;;
73321;SDS011;61549;37.044;22.128;2023-04-25T04:00:34;8.25;;;6.05;;
73321;SDS011;61549;37.044;22.128;2023-04-25T04:03:00;7.25;;;6.00;;
73321;SDS011;61549;37.044;22.128;2023-04-25T04:05:26;7.35;;;5.88;;
73321;SDS011;61549;37.044;22.128;2023-04-25T04:07:52;6.88;;;6.00;;
73321;SDS011;61549;37.044;22.128;2023-04-25T04:10:18;10.52;;;6.05;;
73321;SDS011;61549;37.044;22.128;2023-04-25T04:12:44;7.88;;;6.13;;
73321;SDS011;61549;37.044;22.128;2023-04-25T04:15:10;7.85;;;5.63;;
73321;SDS011;61549;37.044;22.128;2023-04-25T04:17:37;10.00;;;6.03;;
73321;SDS011;61549;37.044;22.128;2023-04-25T04:20:03;6.85;;;5.90;;
73321;SDS011;61549;37.044;22.128;2023-04-25T04:22:29;7.95;;;6.20;;
73321;SDS011;61549;37.044;22.128;2023-04-25T04:24:58;9.77;;;5.82;;
73321;SDS011;61549;37.044;22.128;2023-04-25T04:27:24;7.45;;;6.03;;
73321;SDS011;61549;37.044;22.128;2023-04-25T04:29:50;6.57;;;5.57;;
73321;SDS011;61549;37.044;22.128;2023-04-25T04:32:18;6.78;;;5.63;;
73321;SDS011;61549;37.044;22.128;2023-04-25T04:34:44;7.75;;;5.55;;
73321;SDS011;61549;37.044;22.128;2023-04-25T04:37:10;8.40;;;5.80;;
73321;SDS011;61549;37.044;22.128;2023-04-25T04:39:38;6.88;;;5.90;;
73321;SDS011;61549;37.044;22.128;2023-04-25T04:42:04;8.02;;;6.30;;
73321;SDS011;61549;37.044;22.128;2023-04-25T04:44:30;8.73;;;5.75;;
73321;SDS011;61549;37.044;22.128;2023-04-25T04:46:59;6.63;;;5.72;;
73321;SDS011;61549;37.044;22.128;2023-04-25T04:49:25;7.82;;;5.75;;
73321;SDS011;61549;37.044;22.128;2023-04-25T04:51:51;8.00;;;5.82;;
73321;SDS011;61549;37.044;22.128;2023-04-25T04:54:17;9.32;;;6.45;;
73321;SDS011;61549;37.044;22.128;2023-04-25T04:56:43;8.52;;;6.55;;
73321;SDS011;61549;37.044;22.128;2023-04-25T04:59:09;10.02;;;6.82;;
73321;SDS011;61549;37.044;22.128;2023-04-25T05:01:35;7.93;;;6.32;;
73321;SDS011;61549;37.044;22.128;2023-04-25T05:04:01;11.55;;;6.70;;
73321;SDS011;61549;37.044;22.128;2023-04-25T05:06:28;9.45;;;6.68;;
73321;SDS011;61549;37.044;22.128;2023-04-25T05:08:56;10.75;;;6.90;;
73321;SDS011;61549;37.044;22.128;2023-04-25T05:11:22;8.90;;;6.28;;
73321;SDS011;61549;37.044;22.128;2023-04-25T05:13:51;7.63;;;5.90;;
73321;SDS011;61549;37.044;22.128;2023-04-25T05:16:17;7.35;;;5.65;;
73321;SDS011;61549;37.044;22.128;2023-04-25T05:21:12;8.52;;;5.70;;
73321;SDS011;61549;37.044;22.128;2023-04-25T05:23:38;7.25;;;5.93;;
73321;SDS011;61549;37.044;22.128;2023-04-25T05:26:04;7.70;;;6.15;;
73321;SDS011;61549;37.044;22.128;2023-04-25T05:28:30;6.75;;;5.45;;
73321;SDS011;61549;37.044;22.128;2023-04-25T05:30:56;8.00;;;6.00;;
73321;SDS011;61549;37.044;22.128;2023-04-25T05:33:22;7.40;;;6.10;;
73321;SDS011;61549;37.044;22.128;2023-04-25T05:35:49;8.98;;;5.90;;
73321;SDS011;61549;37.044;22.128;2023-04-25T05:38:15;6.45;;;5.13;;
73321;SDS011;61549;37.044;22.128;2023-04-25T05:40:41;6.18;;;5.57;;
73321;SDS011;61549;37.044;22.128;2023-04-25T05:43:09;6.68;;;5.25;;
73321;SDS011;61549;37.044;22.128;2023-04-25T05:45:35;9.05;;;5.68;;
73321;SDS011;61549;37.044;22.128;2023-04-25T05:48:00;6.43;;;5.05;;
73321;SDS011;61549;37.044;22.128;2023-04-25T05:50:26;6.68;;;5.00;;
73321;SDS011;61549;37.044;22.128;2023-04-25T05:52:52;6.15;;;5.13;;
73321;SDS011;61549;37.044;22.128;2023-04-25T05:55:18;6.47;;;4.75;;
73321;SDS011;61549;37.044;22.128;2023-04-25T05:57:45;7.25;;;5.40;;
73321;SDS011;61549;37.044;22.128;2023-04-25T06:00:14;6.60;;;4.97;;
73321;SDS011;61549;37.044;22.128;2023-04-25T06:02:40;6.57;;;5.03;;
73321;SDS011;61549;37.044;22.128;2023-04-25T06:05:07;7.47;;;5.30;;
73321;SDS011;61549;37.044;22.128;2023-04-25T06:07:33;7.15;;;5.22;;
73321;SDS011;61549;37.044;22.128;2023-04-25T06:09:59;9.05;;;5.78;;
73321;SDS011;61549;37.044;22.128;2023-04-25T06:12:25;6.25;;;5.63;;
73321;SDS011;61549;37.044;22.128;2023-04-25T06:14:52;9.07;;;6.18;;
73321;SDS011;61549;37.044;22.128;2023-04-25T06:17:17;7.32;;;5.40;;
73321;SDS011;61549;37.044;22.128;2023-04-25T06:19:43;7.68;;;5.20;;
73321;SDS011;61549;37.044;22.128;2023-04-25T06:22:09;6.53;;;4.97;;
73321;SDS011;61549;37.044;22.128;2023-04-25T06:24:35;10.65;;;5.65;;
73321;SDS011;61549;37.044;22.128;2023-04-25T06:29:37;7.15;;;5.50;;
73321;SDS011;61549;37.044;22.128;2023-04-25T06:32:02;7.35;;;4.90;;
73321;SDS011;61549;37.044;22.128;2023-04-25T06:34:28;7.65;;;5.05;;
73321;SDS011;61549;37.044;22.128;2023-04-25T06:36:55;7.68;;;5.55;;
73321;SDS011;61549;37.044;22.128;2023-04-25T06:39:20;7.72;;;4.93;;
73321;SDS011;61549;37.044;22.128;2023-04-25T06:41:48;7.22;;;5.47;;
73321;SDS011;61549;37.044;22.128;2023-04-25T06:44:19;6.72;;;5.15;;
73321;SDS011;61549;37.044;22.128;2023-04-25T06:46:44;7.97;;;5.10;;
73321;SDS011;61549;37.044;22.128;2023-04-25T06:49:10;7.80;;;4.53;;
73321;SDS011;61549;37.044;22.128;2023-04-25T06:51:36;7.68;;;4.72;;
73321;SDS011;61549;37.044;22.128;2023-04-25T06:54:02;6.40;;;5.00;;
73321;SDS011;61549;37.044;22.128;2023-04-25T06:56:29;12.18;;;6.65;;
73321;SDS011;61549;37.044;22.128;2023-04-25T06:58:55;10.20;;;7.22;;
73321;SDS011;61549;37.044;22.128;2023-04-25T07:01:21;10.32;;;6.05;;
73321;SDS011;61549;37.044;22.128;2023-04-25T07:03:48;7.97;;;6.10;;
73321;SDS011;61549;37.044;22.128;2023-04-25T07:06:14;7.82;;;5.85;;
73321;SDS011;61549;37.044;22.128;2023-04-25T07:08:40;7.95;;;5.82;;
73321;SDS011;61549;37.044;22.128;2023-04-25T07:11:06;11.80;;;8.68;;
73321;SDS011;61549;37.044;22.128;2023-04-25T07:13:31;16.65;;;12.15;;
73321;SDS011;61549;37.044;22.128;2023-04-25T07:15:57;23.40;;;16.25;;
73321;SDS011;61549;37.044;22.128;2023-04-25T07:18:24;24.80;;;16.35;;
73321;SDS011;61549;37.044;22.128;2023-04-25T07:20:50;16.60;;;12.45;;
73321;SDS011;61549;37.044;22.128;2023-04-25T07:23:15;12.13;;;9.02;;
73321;SDS011;61549;37.044;22.128;2023-04-25T07:25:47;11.10;;;8.07;;
73321;SDS011;61549;37.044;22.128;2023-04-25T07:28:12;11.38;;;8.50;;
73321;SDS011;61549;37.044;22.128;2023-04-25T07:30:38;10.25;;;7.35;;
73321;SDS011;61549;37.044;22.128;2023-04-25T07:33:04;7.68;;;6.25;;
73321;SDS011;61549;37.044;22.128;2023-04-25T07:35:30;10.95;;;8.00;;
73321;SDS011;61549;37.044;22.128;2023-04-25T07:37:56;11.75;;;6.60;;
73321;SDS011;61549;37.044;22.128;2023-04-25T07:40:22;7.07;;;5.40;;
73321;SDS011;61549;37.044;22.128;2023-04-25T07:42:47;7.28;;;5.30;;
73321;SDS011;61549;37.044;22.128;2023-04-25T07:45:13;7.78;;;5.00;;
73321;SDS011;61549;37.044;22.128;2023-04-25T07:47:40;7.45;;;5.00;;
73321;SDS011;61549;37.044;22.128;2023-04-25T07:50:06;7.50;;;4.88;;
73321;SDS011;61549;37.044;22.128;2023-04-25T07:52:32;6.65;;;4.85;;
73321;SDS011;61549;37.044;22.128;2023-04-25T07:54:58;7.57;;;5.43;;
73321;SDS011;61549;37.044;22.128;2023-04-25T07:57:24;5.95;;;5.28;;
73321;SDS011;61549;37.044;22.128;2023-04-25T07:59:50;7.07;;;5.90;;
73321;SDS011;61549;37.044;22.128;2023-04-25T08:02:16;6.90;;;5.78;;
73321;SDS011;61549;37.044;22.128;2023-04-25T08:04:41;6.95;;;5.78;;
73321;SDS011;61549;37.044;22.128;2023-04-25T08:07:07;7.65;;;5.60;;
73321;SDS011;61549;37.044;22.128;2023-04-25T08:09:33;7.22;;;5.20;;
73321;SDS011;61549;37.044;22.128;2023-04-25T08:12:00;5.53;;;4.88;;
73321;SDS011;61549;37.044;22.128;2023-04-25T08:14:29;6.78;;;5.40;;
73321;SDS011;61549;37.044;22.128;2023-04-25T08:17:00;8.88;;;6.18;;
73321;SDS011;61549;37.044;22.128;2023-04-25T08:19:28;8.43;;;5.82;;
73321;SDS011;61549;37.044;22.128;2023-04-25T08:21:55;8.02;;;6.13;;
73321;SDS011;61549;37.044;22.128;2023-04-25T08:24:21;9.00;;;6.40;;
73321;SDS011;61549;37.044;22.128;2023-04-25T08:26:48;8.93;;;7.00;;
73321;SDS011;61549;37.044;22.128;2023-04-25T08:29:14;9.98;;;6.65;;
73321;SDS011;61549;37.044;22.128;2023-04-25T08:31:40;8.20;;;6.05;;
73321;SDS011;61549;37.044;22.128;2023-04-25T08:34:06;8.38;;;5.45;;
73321;SDS011;61549;37.044;22.128;2023-04-25T08:36:32;8.27;;;5.43;;
73321;SDS011;61549;37.044;22.128;2023-04-25T08:38:58;8.48;;;5.80;;
73321;SDS011;61549;37.044;22.128;2023-04-25T08:41:24;6.00;;;4.82;;
73321;SDS011;61549;37.044;22.128;2023-04-25T08:43:51;6.63;;;5.20;;
73321;SDS011;61549;37.044;22.128;2023-04-25T08:46:21;7.63;;;4.97;;
73321;SDS011;61549;37.044;22.128;2023-04-25T08:48:48;8.38;;;4.75;;
73321;SDS011;61549;37.044;22.128;2023-04-25T08:51:17;5.80;;;5.20;;
73321;SDS011;61549;37.044;22.128;2023-04-25T08:53:50;7.03;;;5.40;;
73321;SDS011;61549;37.044;22.128;2023-04-25T08:56:17;8.30;;;4.90;;
73321;SDS011;61549;37.044;22.128;2023-04-25T08:58:45;8.13;;;5.10;;
73321;SDS011;61549;37.044;22.128;2023-04-25T09:01:14;7.82;;;4.97;;
73321;SDS011;61549;37.044;22.128;2023-04-25T09:03:40;7.35;;;5.65;;
73321;SDS011;61549;37.044;22.128;2023-04-25T09:06:06;8.48;;;5.90;;
73321;SDS011;61549;37.044;22.128;2023-04-25T09:08:33;10.23;;;6.00;;
73321;SDS011;61549;37.044;22.128;2023-04-25T09:11:01;8.43;;;5.30;;
73321;SDS011;61549;37.044;22.128;2023-04-25T09:13:27;9.23;;;5.28;;
73321;SDS011;61549;37.044;22.128;2023-04-25T09:15:54;8.70;;;5.00;;
73321;SDS011;61549;37.044;22.128;2023-04-25T09:18:22;7.63;;;5.55;;
73321;SDS011;61549;37.044;22.128;2023-04-25T09:20:56;7.78;;;4.90;;
73321;SDS011;61549;37.044;22.128;2023-04-25T09:23:30;8.52;;;5.40;;
73321;SDS011;61549;37.044;22.128;2023-04-25T09:26:03;7.10;;;5.50;;
73321;SDS011;61549;37.044;22.128;2023-04-25T09:28:31;7.57;;;5.40;;
73321;SDS011;61549;37.044;22.128;2023-04-25T09:30:57;6.70;;;4.70;;
73321;SDS011;61549;37.044;22.128;2023-04-25T09:33:27;7.82;;;5.25;;
73321;SDS011;61549;37.044;22.128;2023-04-25T09:35:56;7.60;;;4.97;;
73321;SDS011;61549;37.044;22.128;2023-04-25T09:38:29;8.40;;;5.15;;
73321;SDS011;61549;37.044;22.128;2023-04-25T09:41:28;8.35;;;4.90;;
73321;SDS011;61549;37.044;22.128;2023-04-25T09:43:56;7.50;;;4.80;;
73321;SDS011;61549;37.044;22.128;2023-04-25T09:46:23;9.20;;;4.93;;
73321;SDS011;61549;37.044;22.128;2023-04-25T09:48:50;6.78;;;4.97;;
73321;SDS011;61549;37.044;22.128;2023-04-25T09:51:18;8.88;;;5.15;;
73321;SDS011;61549;37.044;22.128;2023-04-25T09:53:45;7.30;;;5.05;;
73321;SDS011;61549;37.044;22.128;2023-04-25T09:56:14;7.97;;;4.78;;
73321;SDS011;61549;37.044;22.128;2023-04-25T09:58:41;8.05;;;5.05;;
73321;SDS011;61549;37.044;22.128;2023-04-25T10:01:09;9.23;;;5.40;;
73321;SDS011;61549;37.044;22.128;2023-04-25T10:06:14;6.13;;;4.78;;
73321;SDS011;61549;37.044;22.128;2023-04-25T10:08:44;7.20;;;5.00;;
73321;SDS011;61549;37.044;22.128;2023-04-25T10:11:13;9.68;;;5.47;;
73321;SDS011;61549;37.044;22.128;2023-04-25T10:13:40;8.68;;;5.10;;
73321;SDS011;61549;37.044;22.128;2023-04-25T10:16:07;6.60;;;5.00;;
73321;SDS011;61549;37.044;22.128;2023-04-25T10:18:33;8.55;;;5.43;;
73321;SDS011;61549;37.044;22.128;2023-04-25T10:21:00;8.57;;;5.50;;
73321;SDS011;61549;37.044;22.128;2023-04-25T10:23:29;8.15;;;5.18;;
73321;SDS011;61549;37.044;22.128;2023-04-25T10:25:56;8.00;;;5.30;;
73321;SDS011;61549;37.044;22.128;2023-04-25T10:28:22;7.20;;;4.68;;
73321;SDS011;61549;37.044;22.128;2023-04-25T10:33:32;9.05;;;5.68;;
73321;SDS011;61549;37.044;22.128;2023-04-25T10:36:09;9.30;;;5.30;;
73321;SDS011;61549;37.044;22.128;2023-04-25T10:38:43;9.82;;;5.60;;
73321;SDS011;61549;37.044;22.128;2023-04-25T10:41:11;8.00;;;5.05;;
73321;SDS011;61549;37.044;22.128;2023-04-25T10:43:47;10.77;;;6.05;;
73321;SDS011;61549;37.044;22.128;2023-04-25T10:46:18;11.52;;;5.88;;
73321;SDS011;61549;37.044;22.128;2023-04-25T10:48:51;8.55;;;5.97;;
73321;SDS011;61549;37.044;22.128;2023-04-25T10:51:26;7.28;;;5.32;;
73321;SDS011;61549;37.044;22.128;2023-04-25T10:59:05;13.07;;;5.95;;
73321;SDS011;61549;37.044;22.128;2023-04-25T11:01:39;9.63;;;6.05;;
73321;SDS011;61549;37.044;22.128;2023-04-25T11:09:38;12.23;;;6.28;;
73321;SDS011;61549;37.044;22.128;2023-04-25T11:12:07;8.80;;;6.25;;
73321;SDS011;61549;37.044;22.128;2023-04-25T11:14:33;10.20;;;6.05;;
73321;SDS011;61549;37.044;22.128;2023-04-25T11:16:59;10.80;;;6.03;;
73321;SDS011;61549;37.044;22.128;2023-04-25T11:19:29;10.15;;;5.80;;
73321;SDS011;61549;37.044;22.128;2023-04-25T11:24:34;10.38;;;5.90;;
73321;SDS011;61549;37.044;22.128;2023-04-25T11:27:02;12.52;;;6.10;;
73321;SDS011;61549;37.044;22.128;2023-04-25T11:29:29;9.95;;;5.68;;
73321;SDS011;61549;37.044;22.128;2023-04-25T11:31:56;8.82;;;5.70;;
73321;SDS011;61549;37.044;22.128;2023-04-25T11:34:26;9.35;;;5.55;;
73321;SDS011;61549;37.044;22.128;2023-04-25T11:39:27;11.60;;;6.38;;
73321;SDS011;61549;37.044;22.128;2023-04-25T11:41:53;8.23;;;6.53;;
73321;SDS011;61549;37.044;22.128;2023-04-25T11:47:08;11.48;;;5.65;;
73321;SDS011;61549;37.044;22.128;2023-04-25T11:49:34;8.85;;;5.55;;
73321;SDS011;61549;37.044;22.128;2023-04-25T11:52:00;9.88;;;5.88;;
73321;SDS011;61549;37.044;22.128;2023-04-25T11:54:26;9.95;;;5.63;;
73321;SDS011;61549;37.044;22.128;2023-04-25T11:59:25;11.07;;;6.80;;
73321;SDS011;61549;37.044;22.128;2023-04-25T12:01:51;9.75;;;6.07;;
73321;SDS011;61549;37.044;22.128;2023-04-25T12:04:24;9.88;;;6.50;;
73321;SDS011;61549;37.044;22.128;2023-04-25T12:06:51;9.30;;;6.30;;
73321;SDS011;61549;37.044;22.128;2023-04-25T12:09:19;14.45;;;9.15;;
73321;SDS011;61549;37.044;22.128;2023-04-25T12:11:56;15.85;;;11.10;;
73321;SDS011;61549;37.044;22.128;2023-04-25T12:14:30;9.30;;;5.95;;
73321;SDS011;61549;37.044;22.128;2023-04-25T12:16:58;9.27;;;6.35;;
73321;SDS011;61549;37.044;22.128;2023-04-25T12:19:25;10.52;;;5.55;;
73321;SDS011;61549;37.044;22.128;2023-04-25T12:21:57;7.50;;;5.32;;
73321;SDS011;61549;37.044;22.128;2023-04-25T12:24:24;8.80;;;5.28;;
73321;SDS011;61549;37.044;22.128;2023-04-25T12:26:53;10.10;;;5.13;;
73321;SDS011;61549;37.044;22.128;2023-04-25T12:29:32;9.55;;;5.80;;
73321;SDS011;61549;37.044;22.128;2023-04-25T12:31:59;8.43;;;5.40;;
73321;SDS011;61549;37.044;22.128;2023-04-25T12:34:27;11.35;;;5.10;;
73321;SDS011;61549;37.044;22.128;2023-04-25T12:36:54;11.48;;;6.25;;
73321;SDS011;61549;37.044;22.128;2023-04-25T12:39:20;12.63;;;6.65;;
73321;SDS011;61549;37.044;22.128;2023-04-25T12:41:48;11.80;;;6.40;;
73321;SDS011;61549;37.044;22.128;2023-04-25T12:44:15;12.35;;;6.55;;
73321;SDS011;61549;37.044;22.128;2023-04-25T12:46:49;13.18;;;8.57;;
73321;SDS011;61549;37.044;22.128;2023-04-25T12:49:15;13.73;;;7.85;;
73321;SDS011;61549;37.044;22.128;2023-04-25T12:51:40;11.77;;;7.05;;
73321;SDS011;61549;37.044;22.128;2023-04-25T12:54:07;12.32;;;6.90;;
73321;SDS011;61549;37.044;22.128;2023-04-25T12:56:33;12.48;;;6.50;;
73321;SDS011;61549;37.044;22.128;2023-04-25T12:59:00;11.40;;;5.95;;
73321;SDS011;61549;37.044;22.128;2023-04-25T13:01:27;12.60;;;7.25;;
73321;SDS011;61549;37.044;22.128;2023-04-25T13:03:54;10.68;;;6.05;;
73321;SDS011;61549;37.044;22.128;2023-04-25T13:06:23;11.30;;;5.97;;
73321;SDS011;61549;37.044;22.128;2023-04-25T13:08:49;13.98;;;5.93;;
73321;SDS011;61549;37.044;22.128;2023-04-25T13:11:15;9.85;;;5.20;;
73321;SDS011;61549;37.044;22.128;2023-04-25T13:13:41;9.48;;;5.20;;
73321;SDS011;61549;37.044;22.128;2023-04-25T13:16:08;9.15;;;5.05;;
73321;SDS011;61549;37.044;22.128;2023-04-25T13:18:34;9.77;;;5.65;;
73321;SDS011;61549;37.044;22.128;2023-04-25T13:21:11;12.20;;;5.55;;
73321;SDS011;61549;37.044;22.128;2023-04-25T13:26:08;10.77;;;5.10;;
73321;SDS011;61549;37.044;22.128;2023-04-25T13:28:33;7.78;;;5.13;;
73321;SDS011;61549;37.044;22.128;2023-04-25T13:30:59;9.48;;;5.10;;
73321;SDS011;61549;37.044;22.128;2023-04-25T13:33:25;10.10;;;5.40;;
73321;SDS011;61549;37.044;22.128;2023-04-25T13:35:51;10.07;;;5.25;;
73321;SDS011;61549;37.044;22.128;2023-04-25T13:38:21;10.02;;;5.22;;
73321;SDS011;61549;37.044;22.128;2023-04-25T13:40:50;10.93;;;5.13;;
73321;SDS011;61549;37.044;22.128;2023-04-25T13:43:28;8.32;;;4.47;;
73321;SDS011;61549;37.044;22.128;2023-04-25T13:45:54;13.15;;;5.07;;
73321;SDS011;61549;37.044;22.128;2023-04-25T13:48:20;8.98;;;4.93;;
73321;SDS011;61549;37.044;22.128;2023-04-25T13:50:47;9.73;;;4.95;;
73321;SDS011;61549;37.044;22.128;2023-04-25T13:53:13;12.10;;;5.38;;
73321;SDS011;61549;37.044;22.128;2023-04-25T13:55:39;10.93;;;4.85;;
73321;SDS011;61549;37.044;22.128;2023-04-25T13:58:05;6.90;;;4.78;;
73321;SDS011;61549;37.044;22.128;2023-04-25T14:00:38;10.45;;;4.70;;
73321;SDS011;61549;37.044;22.128;2023-04-25T14:03:06;9.30;;;4.60;;
73321;SDS011;61549;37.044;22.128;2023-04-25T14:05:33;10.38;;;4.72;;
73321;SDS011;61549;37.044;22.128;2023-04-25T14:08:03;8.88;;;4.50;;
73321;SDS011;61549;37.044;22.128;2023-04-25T14:10:30;7.57;;;3.90;;
73321;SDS011;61549;37.044;22.128;2023-04-25T14:12:55;8.65;;;3.65;;
73321;SDS011;61549;37.044;22.128;2023-04-25T14:15:21;7.43;;;3.60;;
73321;SDS011;61549;37.044;22.128;2023-04-25T14:17:47;5.60;;;3.30;;
73321;SDS011;61549;37.044;22.128;2023-04-25T14:20:13;6.60;;;3.35;;
73321;SDS011;61549;37.044;22.128;2023-04-25T14:22:39;6.68;;;3.20;;
73321;SDS011;61549;37.044;22.128;2023-04-25T14:25:08;7.20;;;3.45;;
73321;SDS011;61549;37.044;22.128;2023-04-25T14:27:35;6.65;;;3.20;;
73321;SDS011;61549;37.044;22.128;2023-04-25T14:30:01;5.85;;;3.10;;
73321;SDS011;61549;37.044;22.128;2023-04-25T14:32:26;12.10;;;3.60;;
73321;SDS011;61549;37.044;22.128;2023-04-25T14:34:52;6.93;;;3.28;;
73321;SDS011;61549;37.044;22.128;2023-04-25T14:37:18;6.25;;;3.17;;
73321;SDS011;61549;37.044;22.128;2023-04-25T14:39:44;9.57;;;3.25;;
73321;SDS011;61549;37.044;22.128;2023-04-25T14:42:10;7.82;;;3.20;;
73321;SDS011;61549;37.044;22.128;2023-04-25T14:44:36;6.80;;;3.35;;
73321;SDS011;61549;37.044;22.128;2023-04-25T14:47:03;7.15;;;3.45;;
73321;SDS011;61549;37.044;22.128;2023-04-25T14:49:29;6.30;;;3.30;;
73321;SDS011;61549;37.044;22.128;2023-04-25T14:51:54;7.30;;;3.20;;
73321;SDS011;61549;37.044;22.128;2023-04-25T14:54:20;6.03;;;3.30;;
73321;SDS011;61549;37.044;22.128;2023-04-25T14:56:46;6.35;;;3.63;;
73321;SDS011;61549;37.044;22.128;2023-04-25T14:59:12;6.55;;;2.92;;
73321;SDS011;61549;37.044;22.128;2023-04-25T15:01:38;6.35;;;3.22;;
73321;SDS011;61549;37.044;22.128;2023-04-25T15:04:04;6.43;;;3.03;;
73321;SDS011;61549;37.044;22.128;2023-04-25T15:06:30;9.48;;;3.42;;
73321;SDS011;61549;37.044;22.128;2023-04-25T15:08:55;7.65;;;3.30;;